sensor_id;sensor_type;location;lat;lon;timestamp;P1;P2;P0
56175;PMS5003;63065;51.082;17.016;2023-02-28T00:01:49;35;34;
56175;PMS5003;63065;51.082;17.016;2023-02-28T00:04:15;34;31;
56175;PMS5003;63065;51.082;17.016;2023-02-28T00:06:40;36;33;
56175;PMS5003;63065;51.082;17.016;2023-02-28T00:09:06;40;35;
56175;PMS5003;63065;51.082;17.016;2023-02-28T00:11:31;47;38;
56175;PMS5003;63065;51.082;17.016;2023-02-28T00:13:57;38;36;
56175;PMS5003;63065;51.082;17.016;2023-02-28T00:16:22;44;43;
56175;PMS5003;63065;51.082;17.016;2023-02-28T00:18:48;53;46;
56175;PMS5003;63065;51.082;17.016;2023-02-28T00:21:14;38;37;
56175;PMS5003;63065;51.082;17.016;2023-02-28T00:23:38;42;35;
56175;PMS5003;63065;51.082;17.016;2023-02-28T00:26:04;46;43;
56175;PMS5003;63065;51.082;17.016;2023-02-28T00:28:29;37;36;
56175;PMS5003;63065;51.082;17.016;2023-02-28T00:30:55;40;37;
56175;PMS5003;63065;51.082;17.016;2023-02-28T00:33:21;44;41;
56175;PMS5003;63065;51.082;17.016;2023-02-28T00:35:46;45;38;
56175;PMS5003;63065;51.082;17.016;2023-02-28T00:38:12;41;39;
56175;PMS5003;63065;51.082;17.016;2023-02-28T00:40:37;41;36;
56175;PMS5003;63065;51.082;17.016;2023-02-28T00:43:03;39;35;
56175;PMS5003;63065;51.082;17.016;2023-02-28T00:45:30;42;39;
56175;PMS5003;63065;51.082;17.016;2023-02-28T00:47:54;43;43;
56175;PMS5003;63065;51.082;17.016;2023-02-28T00:50:19;50;43;
56175;PMS5003;63065;51.082;17.016;2023-02-28T00:52:45;49;43;
56175;PMS5003;63065;51.082;17.016;2023-02-28T00:55:10;45;44;
56175;PMS5003;63065;51.082;17.016;2023-02-28T00:57:35;42;40;
56175;PMS5003;63065;51.082;17.016;2023-02-28T01:00:00;47;43;
56175;PMS5003;63065;51.082;17.016;2023-02-28T01:02:26;49;43;
56175;PMS5003;63065;51.082;17.016;2023-02-28T01:04:51;48;44;
56175;PMS5003;63065;51.082;17.016;2023-02-28T01:07:16;42;42;
56175;PMS5003;63065;51.082;17.016;2023-02-28T01:09:42;46;45;
56175;PMS5003;63065;51.082;17.016;2023-02-28T01:12:07;51;46;
56175;PMS5003;63065;51.082;17.016;2023-02-28T01:14:33;51;48;
56175;PMS5003;63065;51.082;17.016;2023-02-28T01:16:59;48;45;
56175;PMS5003;63065;51.082;17.016;2023-02-28T01:19:24;53;48;
56175;PMS5003;63065;51.082;17.016;2023-02-28T01:21:50;55;49;
56175;PMS5003;63065;51.082;17.016;2023-02-28T01:24:15;52;49;
56175;PMS5003;63065;51.082;17.016;2023-02-28T01:26:40;48;45;
56175;PMS5003;63065;51.082;17.016;2023-02-28T01:29:06;43;43;
56175;PMS5003;63065;51.082;17.016;2023-02-28T01:31:31;47;47;
56175;PMS5003;63065;51.082;17.016;2023-02-28T01:33:57;53;53;
56175;PMS5003;63065;51.082;17.016;2023-02-28T01:36:23;49;45;
56175;PMS5003;63065;51.082;17.016;2023-02-28T01:38:48;55;54;
56175;PMS5003;63065;51.082;17.016;2023-02-28T01:41:16;54;51;
56175;PMS5003;63065;51.082;17.016;2023-02-28T01:46:04;64;61;
56175;PMS5003;63065;51.082;17.016;2023-02-28T01:48:31;66;57;
56175;PMS5003;63065;51.082;17.016;2023-02-28T01:50:56;64;54;
56175;PMS5003;63065;51.082;17.016;2023-02-28T01:53:21;52;46;
56175;PMS5003;63065;51.082;17.016;2023-02-28T01:55:47;63;61;
56175;PMS5003;63065;51.082;17.016;2023-02-28T01:58:11;55;53;
56175;PMS5003;63065;51.082;17.016;2023-02-28T02:00:37;58;54;
56175;PMS5003;63065;51.082;17.016;2023-02-28T02:03:05;50;48;
56175;PMS5003;63065;51.082;17.016;2023-02-28T02:05:28;52;47;
56175;PMS5003;63065;51.082;17.016;2023-02-28T02:07:54;56;49;
56175;PMS5003;63065;51.082;17.016;2023-02-28T02:10:20;55;52;
56175;PMS5003;63065;51.082;17.016;2023-02-28T02:12:52;55;51;
56175;PMS5003;63065;51.082;17.016;2023-02-28T02:15:11;51;45;
56175;PMS5003;63065;51.082;17.016;2023-02-28T02:17:36;49;42;
56175;PMS5003;63065;51.082;17.016;2023-02-28T02:20:09;52;50;
56175;PMS5003;63065;51.082;17.016;2023-02-28T02:27:23;47;47;
56175;PMS5003;63065;51.082;17.016;2023-02-28T02:29:47;50;44;
56175;PMS5003;63065;51.082;17.016;2023-02-28T02:37:02;52;44;
56175;PMS5003;63065;51.082;17.016;2023-02-28T02:39:27;47;47;
56175;PMS5003;63065;51.082;17.016;2023-02-28T02:41:52;48;46;
56175;PMS5003;63065;51.082;17.016;2023-02-28T02:44:18;52;48;
56175;PMS5003;63065;51.082;17.016;2023-02-28T02:46:42;56;53;
56175;PMS5003;63065;51.082;17.016;2023-02-28T02:49:08;51;47;
56175;PMS5003;63065;51.082;17.016;2023-02-28T02:51:33;46;44;
56175;PMS5003;63065;51.082;17.016;2023-02-28T02:54:00;49;44;
56175;PMS5003;63065;51.082;17.016;2023-02-28T02:56:24;55;54;
56175;PMS5003;63065;51.082;17.016;2023-02-28T02:58:49;50;46;
56175;PMS5003;63065;51.082;17.016;2023-02-28T03:01:15;47;40;
56175;PMS5003;63065;51.082;17.016;2023-02-28T03:03:39;41;40;
56175;PMS5003;63065;51.082;17.016;2023-02-28T03:06:04;44;41;
56175;PMS5003;63065;51.082;17.016;2023-02-28T03:08:33;48;48;
56175;PMS5003;63065;51.082;17.016;2023-02-28T03:10:55;50;47;
56175;PMS5003;63065;51.082;17.016;2023-02-28T03:13:25;52;49;
56175;PMS5003;63065;51.082;17.016;2023-02-28T03:15:50;46;44;
56175;PMS5003;63065;51.082;17.016;2023-02-28T03:18:13;46;45;
56175;PMS5003;63065;51.082;17.016;2023-02-28T03:20:38;41;40;
56175;PMS5003;63065;51.082;17.016;2023-02-28T03:23:04;49;46;
56175;PMS5003;63065;51.082;17.016;2023-02-28T03:25:29;43;41;
56175;PMS5003;63065;51.082;17.016;2023-02-28T03:27:55;41;39;
56175;PMS5003;63065;51.082;17.016;2023-02-28T03:30:20;48;45;
56175;PMS5003;63065;51.082;17.016;2023-02-28T03:32:45;39;39;
56175;PMS5003;63065;51.082;17.016;2023-02-28T03:35:09;47;44;
56175;PMS5003;63065;51.082;17.016;2023-02-28T03:37:35;45;40;
56175;PMS5003;63065;51.082;17.016;2023-02-28T03:40:01;42;41;
56175;PMS5003;63065;51.082;17.016;2023-02-28T03:42:25;45;42;
56175;PMS5003;63065;51.082;17.016;2023-02-28T03:44:51;48;46;
56175;PMS5003;63065;51.082;17.016;2023-02-28T03:47:16;48;46;
56175;PMS5003;63065;51.082;17.016;2023-02-28T03:49:42;50;45;
56175;PMS5003;63065;51.082;17.016;2023-02-28T03:52:06;51;46;
56175;PMS5003;63065;51.082;17.016;2023-02-28T03:54:32;49;44;
56175;PMS5003;63065;51.082;17.016;2023-02-28T03:56:57;54;50;
56175;PMS5003;63065;51.082;17.016;2023-02-28T03:59:22;51;47;
56175;PMS5003;63065;51.082;17.016;2023-02-28T04:01:47;44;39;
56175;PMS5003;63065;51.082;17.016;2023-02-28T04:04:12;60;52;
56175;PMS5003;63065;51.082;17.016;2023-02-28T04:06:37;51;45;
56175;PMS5003;63065;51.082;17.016;2023-02-28T04:09:04;43;43;
56175;PMS5003;63065;51.082;17.016;2023-02-28T04:11:30;49;44;
56175;PMS5003;63065;51.082;17.016;2023-02-28T04:13:54;55;49;
56175;PMS5003;63065;51.082;17.016;2023-02-28T04:16:20;44;42;
56175;PMS5003;63065;51.082;17.016;2023-02-28T04:18:45;52;47;
56175;PMS5003;63065;51.082;17.016;2023-02-28T04:21:11;49;43;
56175;PMS5003;63065;51.082;17.016;2023-02-28T04:23:36;45;45;
56175;PMS5003;63065;51.082;17.016;2023-02-28T04:26:02;51;48;
56175;PMS5003;63065;51.082;17.016;2023-02-28T04:28:27;57;50;
56175;PMS5003;63065;51.082;17.016;2023-02-28T04:30:54;46;43;
56175;PMS5003;63065;51.082;17.016;2023-02-28T04:33:17;49;44;
56175;PMS5003;63065;51.082;17.016;2023-02-28T04:35:43;50;44;
56175;PMS5003;63065;51.082;17.016;2023-02-28T04:38:08;47;47;
56175;PMS5003;63065;51.082;17.016;2023-02-28T04:40:35;49;46;
56175;PMS5003;63065;51.082;17.016;2023-02-28T04:43:00;48;42;
56175;PMS5003;63065;51.082;17.016;2023-02-28T04:45:26;53;49;
56175;PMS5003;63065;51.082;17.016;2023-02-28T04:47:51;51;46;
56175;PMS5003;63065;51.082;17.016;2023-02-28T04:50:16;46;42;
56175;PMS5003;63065;51.082;17.016;2023-02-28T04:52:42;51;46;
56175;PMS5003;63065;51.082;17.016;2023-02-28T04:55:07;49;48;
56175;PMS5003;63065;51.082;17.016;2023-02-28T04:57:32;56;48;
56175;PMS5003;63065;51.082;17.016;2023-02-28T04:59:58;53;50;
56175;PMS5003;63065;51.082;17.016;2023-02-28T05:02:23;48;47;
56175;PMS5003;63065;51.082;17.016;2023-02-28T05:04:48;51;48;
56175;PMS5003;63065;51.082;17.016;2023-02-28T05:07:13;51;47;
56175;PMS5003;63065;51.082;17.016;2023-02-28T05:09:38;49;46;
56175;PMS5003;63065;51.082;17.016;2023-02-28T05:12:04;57;44;
56175;PMS5003;63065;51.082;17.016;2023-02-28T05:14:30;46;43;
56175;PMS5003;63065;51.082;17.016;2023-02-28T05:16:55;42;41;
56175;PMS5003;63065;51.082;17.016;2023-02-28T05:19:20;48;42;
56175;PMS5003;63065;51.082;17.016;2023-02-28T05:21:49;56;41;
56175;PMS5003;63065;51.082;17.016;2023-02-28T05:24:10;47;42;
56175;PMS5003;63065;51.082;17.016;2023-02-28T05:26:36;46;45;
56175;PMS5003;63065;51.082;17.016;2023-02-28T05:29:01;47;45;
56175;PMS5003;63065;51.082;17.016;2023-02-28T05:31:27;52;46;
56175;PMS5003;63065;51.082;17.016;2023-02-28T05:33:52;53;49;
56175;PMS5003;63065;51.082;17.016;2023-02-28T05:36:17;45;41;
56175;PMS5003;63065;51.082;17.016;2023-02-28T05:38:45;42;39;
56175;PMS5003;63065;51.082;17.016;2023-02-28T05:41:09;54;48;
56175;PMS5003;63065;51.082;17.016;2023-02-28T05:43:34;60;51;
56175;PMS5003;63065;51.082;17.016;2023-02-28T05:45:59;49;44;
56175;PMS5003;63065;51.082;17.016;2023-02-28T05:48:24;51;46;
56175;PMS5003;63065;51.082;17.016;2023-02-28T05:50:49;49;44;
56175;PMS5003;63065;51.082;17.016;2023-02-28T05:53:15;47;44;
56175;PMS5003;63065;51.082;17.016;2023-02-28T05:55:40;48;42;
56175;PMS5003;63065;51.082;17.016;2023-02-28T05:58:05;48;45;
56175;PMS5003;63065;51.082;17.016;2023-02-28T06:00:30;51;45;
56175;PMS5003;63065;51.082;17.016;2023-02-28T06:02:56;44;40;
56175;PMS5003;63065;51.082;17.016;2023-02-28T06:05:21;48;45;
56175;PMS5003;63065;51.082;17.016;2023-02-28T06:07:46;56;51;
56175;PMS5003;63065;51.082;17.016;2023-02-28T06:10:11;58;50;
56175;PMS5003;63065;51.082;17.016;2023-02-28T06:12:37;50;48;
56175;PMS5003;63065;51.082;17.016;2023-02-28T06:15:02;47;43;
56175;PMS5003;63065;51.082;17.016;2023-02-28T06:17:27;58;52;
56175;PMS5003;63065;51.082;17.016;2023-02-28T06:19:52;49;46;
56175;PMS5003;63065;51.082;17.016;2023-02-28T06:22:17;50;45;
56175;PMS5003;63065;51.082;17.016;2023-02-28T06:24:42;52;44;
56175;PMS5003;63065;51.082;17.016;2023-02-28T06:27:08;52;44;
56175;PMS5003;63065;51.082;17.016;2023-02-28T06:29:34;55;53;
56175;PMS5003;63065;51.082;17.016;2023-02-28T06:32:00;59;55;
56175;PMS5003;63065;51.082;17.016;2023-02-28T06:34:25;48;43;
56175;PMS5003;63065;51.082;17.016;2023-02-28T06:36:51;51;48;
56175;PMS5003;63065;51.082;17.016;2023-02-28T06:39:16;53;46;
56175;PMS5003;63065;51.082;17.016;2023-02-28T06:41:42;50;47;
56175;PMS5003;63065;51.082;17.016;2023-02-28T06:44:11;52;47;
56175;PMS5003;63065;51.082;17.016;2023-02-28T06:46:32;52;49;
56175;PMS5003;63065;51.082;17.016;2023-02-28T06:48:58;52;50;
56175;PMS5003;63065;51.082;17.016;2023-02-28T06:51:23;64;56;
56175;PMS5003;63065;51.082;17.016;2023-02-28T06:53:49;56;52;
56175;PMS5003;63065;51.082;17.016;2023-02-28T06:56:15;52;47;
56175;PMS5003;63065;51.082;17.016;2023-02-28T06:58:40;43;39;
56175;PMS5003;63065;51.082;17.016;2023-02-28T07:01:06;51;44;
56175;PMS5003;63065;51.082;17.016;2023-02-28T07:03:31;47;43;
56175;PMS5003;63065;51.082;17.016;2023-02-28T07:05:57;43;42;
56175;PMS5003;63065;51.082;17.016;2023-02-28T07:08:22;48;43;
56175;PMS5003;63065;51.082;17.016;2023-02-28T07:10:47;44;41;
56175;PMS5003;63065;51.082;17.016;2023-02-28T07:13:12;43;39;
56175;PMS5003;63065;51.082;17.016;2023-02-28T07:15:38;44;41;
56175;PMS5003;63065;51.082;17.016;2023-02-28T07:18:04;49;45;
56175;PMS5003;63065;51.082;17.016;2023-02-28T07:20:34;45;41;
56175;PMS5003;63065;51.082;17.016;2023-02-28T07:22:54;45;41;
56175;PMS5003;63065;51.082;17.016;2023-02-28T07:25:19;43;40;
56175;PMS5003;63065;51.082;17.016;2023-02-28T07:27:45;44;40;
56175;PMS5003;63065;51.082;17.016;2023-02-28T07:30:10;51;47;
56175;PMS5003;63065;51.082;17.016;2023-02-28T07:32:36;42;39;
56175;PMS5003;63065;51.082;17.016;2023-02-28T07:35:01;34;31;
56175;PMS5003;63065;51.082;17.016;2023-02-28T07:37:26;38;34;
56175;PMS5003;63065;51.082;17.016;2023-02-28T07:39:51;34;30;
56175;PMS5003;63065;51.082;17.016;2023-02-28T07:42:17;36;34;
56175;PMS5003;63065;51.082;17.016;2023-02-28T07:44:42;31;30;
56175;PMS5003;63065;51.082;17.016;2023-02-28T07:47:08;35;33;
56175;PMS5003;63065;51.082;17.016;2023-02-28T07:49:33;36;36;
56175;PMS5003;63065;51.082;17.016;2023-02-28T07:51:58;42;35;
56175;PMS5003;63065;51.082;17.016;2023-02-28T07:54:24;37;32;
56175;PMS5003;63065;51.082;17.016;2023-02-28T07:56:49;35;34;
56175;PMS5003;63065;51.082;17.016;2023-02-28T07:59:14;33;33;
56175;PMS5003;63065;51.082;17.016;2023-02-28T08:01:40;33;33;
56175;PMS5003;63065;51.082;17.016;2023-02-28T08:04:06;37;36;
56175;PMS5003;63065;51.082;17.016;2023-02-28T08:06:31;40;38;
56175;PMS5003;63065;51.082;17.016;2023-02-28T08:08:56;36;32;
56175;PMS5003;63065;51.082;17.016;2023-02-28T08:11:22;37;36;
56175;PMS5003;63065;51.082;17.016;2023-02-28T08:13:47;33;29;
56175;PMS5003;63065;51.082;17.016;2023-02-28T08:16:13;40;33;
56175;PMS5003;63065;51.082;17.016;2023-02-28T08:18:38;34;31;
56175;PMS5003;63065;51.082;17.016;2023-02-28T08:21:07;43;38;
56175;PMS5003;63065;51.082;17.016;2023-02-28T08:23:30;44;39;
56175;PMS5003;63065;51.082;17.016;2023-02-28T08:25:55;41;36;
56175;PMS5003;63065;51.082;17.016;2023-02-28T08:28:20;42;37;
56175;PMS5003;63065;51.082;17.016;2023-02-28T08:30:45;43;39;
56175;PMS5003;63065;51.082;17.016;2023-02-28T08:33:11;39;36;
56175;PMS5003;63065;51.082;17.016;2023-02-28T08:35:36;34;32;
56175;PMS5003;63065;51.082;17.016;2023-02-28T08:38:02;38;35;
56175;PMS5003;63065;51.082;17.016;2023-02-28T08:40:27;41;38;
56175;PMS5003;63065;51.082;17.016;2023-02-28T08:42:53;40;38;
56175;PMS5003;63065;51.082;17.016;2023-02-28T08:45:18;40;36;
56175;PMS5003;63065;51.082;17.016;2023-02-28T08:47:43;33;31;
56175;PMS5003;63065;51.082;17.016;2023-02-28T08:50:09;34;34;
56175;PMS5003;63065;51.082;17.016;2023-02-28T08:52:34;39;35;
56175;PMS5003;63065;51.082;17.016;2023-02-28T08:55:00;40;37;
56175;PMS5003;63065;51.082;17.016;2023-02-28T08:57:25;36;34;
56175;PMS5003;63065;51.082;17.016;2023-02-28T08:59:51;38;34;
56175;PMS5003;63065;51.082;17.016;2023-02-28T09:02:16;33;30;
56175;PMS5003;63065;51.082;17.016;2023-02-28T09:04:41;23;23;
56175;PMS5003;63065;51.082;17.016;2023-02-28T09:07:07;25;23;
56175;PMS5003;63065;51.082;17.016;2023-02-28T09:09:32;23;20;
56175;PMS5003;63065;51.082;17.016;2023-02-28T09:11:57;23;22;
56175;PMS5003;63065;51.082;17.016;2023-02-28T09:14:23;21;21;
56175;PMS5003;63065;51.082;17.016;2023-02-28T09:16:48;24;22;
56175;PMS5003;63065;51.082;17.016;2023-02-28T09:19:13;24;22;
56175;PMS5003;63065;51.082;17.016;2023-02-28T09:21:39;26;23;
56175;PMS5003;63065;51.082;17.016;2023-02-28T09:24:04;25;22;
56175;PMS5003;63065;51.082;17.016;2023-02-28T09:26:30;21;21;
56175;PMS5003;63065;51.082;17.016;2023-02-28T09:28:55;20;20;
56175;PMS5003;63065;51.082;17.016;2023-02-28T09:31:21;18;15;
56175;PMS5003;63065;51.082;17.016;2023-02-28T09:33:46;24;22;
56175;PMS5003;63065;51.082;17.016;2023-02-28T09:36:11;21;20;
56175;PMS5003;63065;51.082;17.016;2023-02-28T09:38:37;24;20;
56175;PMS5003;63065;51.082;17.016;2023-02-28T09:41:03;25;23;
56175;PMS5003;63065;51.082;17.016;2023-02-28T09:43:29;19;19;
56175;PMS5003;63065;51.082;17.016;2023-02-28T09:45:54;20;20;
56175;PMS5003;63065;51.082;17.016;2023-02-28T09:48:20;24;22;
56175;PMS5003;63065;51.082;17.016;2023-02-28T09:50:44;29;24;
56175;PMS5003;63065;51.082;17.016;2023-02-28T09:53:11;19;19;
56175;PMS5003;63065;51.082;17.016;2023-02-28T09:55:36;24;21;
56175;PMS5003;63065;51.082;17.016;2023-02-28T09:58:00;19;18;
56175;PMS5003;63065;51.082;17.016;2023-02-28T10:00:28;23;21;
56175;PMS5003;63065;51.082;17.016;2023-02-28T10:02:54;26;24;
56175;PMS5003;63065;51.082;17.016;2023-02-28T10:05:17;22;21;
56175;PMS5003;63065;51.082;17.016;2023-02-28T10:07:46;24;21;
56175;PMS5003;63065;51.082;17.016;2023-02-28T10:10:15;22;22;
56175;PMS5003;63065;51.082;17.016;2023-02-28T10:12:32;25;22;
56175;PMS5003;63065;51.082;17.016;2023-02-28T10:14:58;26;24;
56175;PMS5003;63065;51.082;17.016;2023-02-28T10:17:25;23;22;
56175;PMS5003;63065;51.082;17.016;2023-02-28T10:19:50;26;25;
56175;PMS5003;63065;51.082;17.016;2023-02-28T10:22:14;23;23;
56175;PMS5003;63065;51.082;17.016;2023-02-28T10:24:41;24;22;
56175;PMS5003;63065;51.082;17.016;2023-02-28T10:27:06;25;24;
56175;PMS5003;63065;51.082;17.016;2023-02-28T10:29:31;24;23;
56175;PMS5003;63065;51.082;17.016;2023-02-28T10:32:01;35;29;
56175;PMS5003;63065;51.082;17.016;2023-02-28T10:34:21;30;26;
56175;PMS5003;63065;51.082;17.016;2023-02-28T10:36:46;23;23;
56175;PMS5003;63065;51.082;17.016;2023-02-28T10:41:36;26;22;
56175;PMS5003;63065;51.082;17.016;2023-02-28T10:46:27;29;28;
56175;PMS5003;63065;51.082;17.016;2023-02-28T10:51:19;27;24;
56175;PMS5003;63065;51.082;17.016;2023-02-28T10:53:47;25;24;
56175;PMS5003;63065;51.082;17.016;2023-02-28T10:56:14;25;21;
56175;PMS5003;63065;51.082;17.016;2023-02-28T11:00:59;31;25;
56175;PMS5003;63065;51.082;17.016;2023-02-28T11:03:28;28;27;
56175;PMS5003;63065;51.082;17.016;2023-02-28T11:05:50;35;33;
56175;PMS5003;63065;51.082;17.016;2023-02-28T11:08:16;32;28;
56175;PMS5003;63065;51.082;17.016;2023-02-28T11:10:44;28;28;
56175;PMS5003;63065;51.082;17.016;2023-02-28T11:13:12;26;22;
56175;PMS5003;63065;51.082;17.016;2023-02-28T11:15:33;35;33;
56175;PMS5003;63065;51.082;17.016;2023-02-28T11:17:59;26;25;
56175;PMS5003;63065;51.082;17.016;2023-02-28T11:20:23;26;26;
56175;PMS5003;63065;51.082;17.016;2023-02-28T11:22:48;29;28;
56175;PMS5003;63065;51.082;17.016;2023-02-28T11:25:16;30;29;
56175;PMS5003;63065;51.082;17.016;2023-02-28T11:27:43;26;26;
56175;PMS5003;63065;51.082;17.016;2023-02-28T11:30:04;28;27;
56175;PMS5003;63065;51.082;17.016;2023-02-28T11:32:31;37;30;
56175;PMS5003;63065;51.082;17.016;2023-02-28T11:37:20;27;27;
56175;PMS5003;63065;51.082;17.016;2023-02-28T11:39:46;31;27;
56175;PMS5003;63065;51.082;17.016;2023-02-28T11:42:18;27;26;
56175;PMS5003;63065;51.082;17.016;2023-02-28T11:44:42;32;29;
56175;PMS5003;63065;51.082;17.016;2023-02-28T11:47:04;32;30;
56175;PMS5003;63065;51.082;17.016;2023-02-28T11:49:31;29;27;
56175;PMS5003;63065;51.082;17.016;2023-02-28T11:51:53;29;27;
56175;PMS5003;63065;51.082;17.016;2023-02-28T11:54:27;26;24;
56175;PMS5003;63065;51.082;17.016;2023-02-28T11:56:46;30;28;
56175;PMS5003;63065;51.082;17.016;2023-02-28T11:59:14;26;22;
56175;PMS5003;63065;51.082;17.016;2023-02-28T12:01:38;32;31;
56175;PMS5003;63065;51.082;17.016;2023-02-28T12:04:04;29;27;
56175;PMS5003;63065;51.082;17.016;2023-02-28T12:06:28;33;30;
56175;PMS5003;63065;51.082;17.016;2023-02-28T12:08:55;32;32;
56175;PMS5003;63065;51.082;17.016;2023-02-28T12:11:19;32;31;
56175;PMS5003;63065;51.082;17.016;2023-02-28T12:13:45;27;27;
56175;PMS5003;63065;51.082;17.016;2023-02-28T12:16:13;26;23;
56175;PMS5003;63065;51.082;17.016;2023-02-28T12:18:37;33;30;
56175;PMS5003;63065;51.082;17.016;2023-02-28T12:21:00;31;30;
56175;PMS5003;63065;51.082;17.016;2023-02-28T12:23:28;30;30;
56175;PMS5003;63065;51.082;17.016;2023-02-28T12:25:50;25;25;
56175;PMS5003;63065;51.082;17.016;2023-02-28T12:28:14;26;24;
56175;PMS5003;63065;51.082;17.016;2023-02-28T12:30:41;31;28;
56175;PMS5003;63065;51.082;17.016;2023-02-28T12:33:06;30;28;
56175;PMS5003;63065;51.082;17.016;2023-02-28T12:35:32;25;25;
56175;PMS5003;63065;51.082;17.016;2023-02-28T12:37:57;32;27;
56175;PMS5003;63065;51.082;17.016;2023-02-28T12:40:22;27;27;
56175;PMS5003;63065;51.082;17.016;2023-02-28T12:42:49;28;26;
56175;PMS5003;63065;51.082;17.016;2023-02-28T12:45:13;30;30;
56175;PMS5003;63065;51.082;17.016;2023-02-28T12:47:37;33;29;
56175;PMS5003;63065;51.082;17.016;2023-02-28T12:50:04;31;31;
56175;PMS5003;63065;51.082;17.016;2023-02-28T12:52:31;27;27;
56175;PMS5003;63065;51.082;17.016;2023-02-28T12:55:00;36;32;
56175;PMS5003;63065;51.082;17.016;2023-02-28T12:57:21;29;28;
56175;PMS5003;63065;51.082;17.016;2023-02-28T12:59:46;33;32;
56175;PMS5003;63065;51.082;17.016;2023-02-28T13:07:05;30;28;
56175;PMS5003;63065;51.082;17.016;2023-02-28T13:09:25;40;39;
56175;PMS5003;63065;51.082;17.016;2023-02-28T13:11:51;43;37;
56175;PMS5003;63065;51.082;17.016;2023-02-28T13:14:19;39;39;
56175;PMS5003;63065;51.082;17.016;2023-02-28T13:19:09;37;34;
56175;PMS5003;63065;51.082;17.016;2023-02-28T13:21:32;37;34;
56175;PMS5003;63065;51.082;17.016;2023-02-28T13:23:58;35;34;
56175;PMS5003;63065;51.082;17.016;2023-02-28T13:26:22;31;30;
56175;PMS5003;63065;51.082;17.016;2023-02-28T13:31:13;36;31;
56175;PMS5003;63065;51.082;17.016;2023-02-28T13:36:08;35;34;
56175;PMS5003;63065;51.082;17.016;2023-02-28T13:40:54;35;32;
56175;PMS5003;63065;51.082;17.016;2023-02-28T13:43:20;29;29;
56175;PMS5003;63065;51.082;17.016;2023-02-28T13:50:36;35;33;
56175;PMS5003;63065;51.082;17.016;2023-02-28T13:53:07;33;30;
56175;PMS5003;63065;51.082;17.016;2023-02-28T13:55:27;32;30;
56175;PMS5003;63065;51.082;17.016;2023-02-28T13:57:56;33;33;
56175;PMS5003;63065;51.082;17.016;2023-02-28T14:00:21;35;34;
56175;PMS5003;63065;51.082;17.016;2023-02-28T14:02:50;31;29;
56175;PMS5003;63065;51.082;17.016;2023-02-28T14:05:11;40;39;
56175;PMS5003;63065;51.082;17.016;2023-02-28T14:07:33;34;31;
56175;PMS5003;63065;51.082;17.016;2023-02-28T14:09:59;32;32;
56175;PMS5003;63065;51.082;17.016;2023-02-28T14:17:15;31;29;
56175;PMS5003;63065;51.082;17.016;2023-02-28T14:19:41;32;31;
56175;PMS5003;63065;51.082;17.016;2023-02-28T14:22:08;31;30;
56175;PMS5003;63065;51.082;17.016;2023-02-28T14:27:02;32;30;
56175;PMS5003;63065;51.082;17.016;2023-02-28T14:29:30;32;29;
56175;PMS5003;63065;51.082;17.016;2023-02-28T14:31:49;31;29;
56175;PMS5003;63065;51.082;17.016;2023-02-28T14:34:20;31;29;
56175;PMS5003;63065;51.082;17.016;2023-02-28T14:36:40;28;28;
56175;PMS5003;63065;51.082;17.016;2023-02-28T14:39:05;32;30;
56175;PMS5003;63065;51.082;17.016;2023-02-28T14:41:32;34;30;
56175;PMS5003;63065;51.082;17.016;2023-02-28T14:43:56;36;35;
56175;PMS5003;63065;51.082;17.016;2023-02-28T14:46:20;26;26;
56175;PMS5003;63065;51.082;17.016;2023-02-28T14:48:45;34;29;
56175;PMS5003;63065;51.082;17.016;2023-02-28T14:51:11;30;29;
56175;PMS5003;63065;51.082;17.016;2023-02-28T14:53:36;34;31;
56175;PMS5003;63065;51.082;17.016;2023-02-28T14:56:01;40;35;
56175;PMS5003;63065;51.082;17.016;2023-02-28T14:58:28;36;34;
56175;PMS5003;63065;51.082;17.016;2023-02-28T15:00:53;35;33;
56175;PMS5003;63065;51.082;17.016;2023-02-28T15:03:18;40;39;
56175;PMS5003;63065;51.082;17.016;2023-02-28T15:05:47;38;37;
56175;PMS5003;63065;51.082;17.016;2023-02-28T15:08:11;34;32;
56175;PMS5003;63065;51.082;17.016;2023-02-28T15:10:35;44;38;
56175;PMS5003;63065;51.082;17.016;2023-02-28T15:13:01;38;33;
56175;PMS5003;63065;51.082;17.016;2023-02-28T15:15:27;41;40;
56175;PMS5003;63065;51.082;17.016;2023-02-28T15:17:51;36;34;
56175;PMS5003;63065;51.082;17.016;2023-02-28T15:20:17;44;36;
56175;PMS5003;63065;51.082;17.016;2023-02-28T15:22:42;35;35;
56175;PMS5003;63065;51.082;17.016;2023-02-28T15:25:09;34;32;
56175;PMS5003;63065;51.082;17.016;2023-02-28T15:27:33;37;35;
56175;PMS5003;63065;51.082;17.016;2023-02-28T15:29:59;39;37;
56175;PMS5003;63065;51.082;17.016;2023-02-28T15:32:26;35;33;
56175;PMS5003;63065;51.082;17.016;2023-02-28T15:34:50;40;37;
56175;PMS5003;63065;51.082;17.016;2023-02-28T15:39:41;37;35;
56175;PMS5003;63065;51.082;17.016;2023-02-28T15:42:09;40;31;
56175;PMS5003;63065;51.082;17.016;2023-02-28T15:44:33;30;29;
56175;PMS5003;63065;51.082;17.016;2023-02-28T15:46:58;39;33;
56175;PMS5003;63065;51.082;17.016;2023-02-28T15:49:22;33;30;
56175;PMS5003;63065;51.082;17.016;2023-02-28T15:51:48;31;29;
56175;PMS5003;63065;51.082;17.016;2023-02-28T15:54:14;40;35;
56175;PMS5003;63065;51.082;17.016;2023-02-28T15:56:40;32;32;
56175;PMS5003;63065;51.082;17.016;2023-02-28T15:59:05;31;29;
56175;PMS5003;63065;51.082;17.016;2023-02-28T16:01:31;37;33;
56175;PMS5003;63065;51.082;17.016;2023-02-28T16:03:56;38;34;
56175;PMS5003;63065;51.082;17.016;2023-02-28T16:06:24;32;28;
56175;PMS5003;63065;51.082;17.016;2023-02-28T16:08:45;35;33;
56175;PMS5003;63065;51.082;17.016;2023-02-28T16:11:10;32;29;
56175;PMS5003;63065;51.082;17.016;2023-02-28T16:13:36;36;29;
56175;PMS5003;63065;51.082;17.016;2023-02-28T16:16:01;31;31;
56175;PMS5003;63065;51.082;17.016;2023-02-28T16:18:27;38;33;
56175;PMS5003;63065;51.082;17.016;2023-02-28T16:20:53;29;28;
56175;PMS5003;63065;51.082;17.016;2023-02-28T16:23:18;31;26;
56175;PMS5003;63065;51.082;17.016;2023-02-28T16:25:44;33;30;
56175;PMS5003;63065;51.082;17.016;2023-02-28T16:28:12;34;32;
56175;PMS5003;63065;51.082;17.016;2023-02-28T16:30:34;33;31;
56175;PMS5003;63065;51.082;17.016;2023-02-28T16:33:00;32;31;
56175;PMS5003;63065;51.082;17.016;2023-02-28T16:35:25;30;28;
56175;PMS5003;63065;51.082;17.016;2023-02-28T16:37:51;31;30;
56175;PMS5003;63065;51.082;17.016;2023-02-28T16:40:17;38;31;
56175;PMS5003;63065;51.082;17.016;2023-02-28T16:42:41;36;28;